sensor_id;sensor_type;location;lat;lon;timestamp;P1;durP1;ratioP1;P2;durP2;ratioP2
49764;SDS011;35657;51.204;-4.130;2022-07-29T00:01:57;3.80;;;2.28;;
49764;SDS011;35657;51.204;-4.130;2022-07-29T00:04:22;4.32;;;2.83;;
49764;SDS011;35657;51.204;-4.130;2022-07-29T00:06:48;4.80;;;2.30;;
49764;SDS011;35657;51.204;-4.130;2022-07-29T00:09:14;3.47;;;2.20;;
49764;SDS011;35657;51.204;-4.130;2022-07-29T00:11:39;4.22;;;2.20;;
49764;SDS011;35657;51.204;-4.130;2022-07-29T00:14:05;5.47;;;2.13;;
49764;SDS011;35657;51.204;-4.130;2022-07-29T00:16:31;9.52;;;3.38;;
49764;SDS011;35657;51.204;-4.130;2022-07-29T00:18:57;5.07;;;2.40;;
49764;SDS011;35657;51.204;-4.130;2022-07-29T00:21:23;3.92;;;2.40;;
49764;SDS011;35657;51.204;-4.130;2022-07-29T00:23:48;5.88;;;2.30;;
49764;SDS011;35657;51.204;-4.130;2022-07-29T00:26:14;4.93;;;3.53;;
49764;SDS011;35657;51.204;-4.130;2022-07-29T00:28:40;2.72;;;2.15;;
49764;SDS011;35657;51.204;-4.130;2022-07-29T00:31:05;3.78;;;2.40;;
49764;SDS011;35657;51.204;-4.130;2022-07-29T00:33:31;4.88;;;2.13;;
49764;SDS011;35657;51.204;-4.130;2022-07-29T00:35:57;7.20;;;2.30;;
49764;SDS011;35657;51.204;-4.130;2022-07-29T00:38:22;6.65;;;2.33;;
49764;SDS011;35657;51.204;-4.130;2022-07-29T00:40:48;3.47;;;2.30;;
49764;SDS011;35657;51.204;-4.130;2022-07-29T00:43:14;4.97;;;2.58;;
49764;SDS011;35657;51.204;-4.130;2022-07-29T00:45:40;4.47;;;3.08;;
49764;SDS011;35657;51.204;-4.130;2022-07-29T00:48:06;5.80;;;2.53;;
49764;SDS011;35657;51.204;-4.130;2022-07-29T00:50:33;6.20;;;2.90;;
49764;SDS011;35657;51.204;-4.130;2022-07-29T00:53:00;5.00;;;2.58;;
49764;SDS011;35657;51.204;-4.130;2022-07-29T00:55:27;6.00;;;2.50;;
49764;SDS011;35657;51.204;-4.130;2022-07-29T00:57:54;4.88;;;2.67;;
49764;SDS011;35657;51.204;-4.130;2022-07-29T01:00:22;3.45;;;2.63;;
49764;SDS011;35657;51.204;-4.130;2022-07-29T01:02:50;5.35;;;2.72;;
49764;SDS011;35657;51.204;-4.130;2022-07-29T01:05:24;4.20;;;2.67;;
49764;SDS011;35657;51.204;-4.130;2022-07-29T01:07:53;7.57;;;2.90;;
49764;SDS011;35657;51.204;-4.130;2022-07-29T01:10:19;5.00;;;2.63;;
49764;SDS011;35657;51.204;-4.130;2022-07-29T01:12:48;3.80;;;2.25;;
49764;SDS011;35657;51.204;-4.130;2022-07-29T01:15:16;5.00;;;2.22;;
49764;SDS011;35657;51.204;-4.130;2022-07-29T01:18:02;3.35;;;2.50;;
49764;SDS011;35657;51.204;-4.130;2022-07-29T01:26:49;5.60;;;2.65;;
49764;SDS011;35657;51.204;-4.130;2022-07-29T01:29:34;6.55;;;2.72;;
49764;SDS011;35657;51.204;-4.130;2022-07-29T01:32:14;6.43;;;4.00;;
49764;SDS011;35657;51.204;-4.130;2022-07-29T01:34:57;6.65;;;2.70;;
49764;SDS011;35657;51.204;-4.130;2022-07-29T01:38:06;4.80;;;2.53;;
49764;SDS011;35657;51.204;-4.130;2022-07-29T01:40:37;3.92;;;2.40;;
49764;SDS011;35657;51.204;-4.130;2022-07-29T01:43:09;8.10;;;2.55;;
49764;SDS011;35657;51.204;-4.130;2022-07-29T01:45:39;4.30;;;2.90;;
49764;SDS011;35657;51.204;-4.130;2022-07-29T01:48:10;5.88;;;2.95;;
49764;SDS011;35657;51.204;-4.130;2022-07-29T01:50:46;5.55;;;3.55;;
49764;SDS011;35657;51.204;-4.130;2022-07-29T01:53:15;9.07;;;4.07;;
49764;SDS011;35657;51.204;-4.130;2022-07-29T01:55:47;4.68;;;2.92;;
49764;SDS011;35657;51.204;-4.130;2022-07-29T01:58:15;5.63;;;3.28;;
49764;SDS011;35657;51.204;-4.130;2022-07-29T02:00:44;9.25;;;3.42;;
49764;SDS011;35657;51.204;-4.130;2022-07-29T02:03:11;14.52;;;3.75;;
49764;SDS011;35657;51.204;-4.130;2022-07-29T02:05:40;8.43;;;4.15;;
49764;SDS011;35657;51.204;-4.130;2022-07-29T02:08:09;6.03;;;3.63;;
49764;SDS011;35657;51.204;-4.130;2022-07-29T02:10:36;9.23;;;3.45;;
49764;SDS011;35657;51.204;-4.130;2022-07-29T02:13:03;6.25;;;3.50;;
49764;SDS011;35657;51.204;-4.130;2022-07-29T02:15:32;8.82;;;3.63;;
49764;SDS011;35657;51.204;-4.130;2022-07-29T02:18:06;7.40;;;4.03;;
49764;SDS011;35657;51.204;-4.130;2022-07-29T02:20:34;9.23;;;3.40;;
49764;SDS011;35657;51.204;-4.130;2022-07-29T02:23:01;6.18;;;3.70;;
49764;SDS011;35657;51.204;-4.130;2022-07-29T02:25:28;7.57;;;3.20;;
49764;SDS011;35657;51.204;-4.130;2022-07-29T02:27:54;7.20;;;3.40;;
49764;SDS011;35657;51.204;-4.130;2022-07-29T02:30:22;6.68;;;3.88;;
49764;SDS011;35657;51.204;-4.130;2022-07-29T02:32:50;3.83;;;2.75;;
49764;SDS011;35657;51.204;-4.130;2022-07-29T02:35:18;7.47;;;3.03;;
49764;SDS011;35657;51.204;-4.130;2022-07-29T02:37:45;5.75;;;3.38;;
49764;SDS011;35657;51.204;-4.130;2022-07-29T02:40:36;8.10;;;3.22;;
49764;SDS011;35657;51.204;-4.130;2022-07-29T02:43:05;5.40;;;2.92;;
49764;SDS011;35657;51.204;-4.130;2022-07-29T02:45:33;5.68;;;2.40;;
49764;SDS011;35657;51.204;-4.130;2022-07-29T02:48:06;3.60;;;2.85;;
49764;SDS011;35657;51.204;-4.130;2022-07-29T02:50:42;4.50;;;2.90;;
49764;SDS011;35657;51.204;-4.130;2022-07-29T02:53:18;5.35;;;2.55;;
49764;SDS011;35657;51.204;-4.130;2022-07-29T02:58:22;4.88;;;2.88;;
49764;SDS011;35657;51.204;-4.130;2022-07-29T03:00:57;9.70;;;2.80;;
49764;SDS011;35657;51.204;-4.130;2022-07-29T03:03:28;7.07;;;2.53;;
49764;SDS011;35657;51.204;-4.130;2022-07-29T03:05:59;5.20;;;2.60;;
49764;SDS011;35657;51.204;-4.130;2022-07-29T03:08:27;4.43;;;2.65;;
49764;SDS011;35657;51.204;-4.130;2022-07-29T03:10:54;3.97;;;2.60;;
49764;SDS011;35657;51.204;-4.130;2022-07-29T03:13:21;4.70;;;2.65;;
49764;SDS011;35657;51.204;-4.130;2022-07-29T03:15:47;4.47;;;2.50;;
49764;SDS011;35657;51.204;-4.130;2022-07-29T03:18:14;5.78;;;2.63;;
49764;SDS011;35657;51.204;-4.130;2022-07-29T03:20:40;3.38;;;2.25;;
49764;SDS011;35657;51.204;-4.130;2022-07-29T03:23:06;3.75;;;2.50;;
49764;SDS011;35657;51.204;-4.130;2022-07-29T03:25:33;6.10;;;2.92;;
49764;SDS011;35657;51.204;-4.130;2022-07-29T03:27:59;4.13;;;2.33;;
49764;SDS011;35657;51.204;-4.130;2022-07-29T03:30:25;2.60;;;2.00;;
49764;SDS011;35657;51.204;-4.130;2022-07-29T03:32:52;2.88;;;2.30;;
49764;SDS011;35657;51.204;-4.130;2022-07-29T03:35:18;4.32;;;2.47;;
49764;SDS011;35657;51.204;-4.130;2022-07-29T03:37:45;5.00;;;1.85;;
49764;SDS011;35657;51.204;-4.130;2022-07-29T03:40:11;2.30;;;1.83;;
49764;SDS011;35657;51.204;-4.130;2022-07-29T03:42:44;2.95;;;2.00;;
49764;SDS011;35657;51.204;-4.130;2022-07-29T03:45:13;2.78;;;2.08;;
49764;SDS011;35657;51.204;-4.130;2022-07-29T03:47:44;6.55;;;1.85;;
49764;SDS011;35657;51.204;-4.130;2022-07-29T03:50:14;8.63;;;1.70;;
49764;SDS011;35657;51.204;-4.130;2022-07-29T03:52:41;2.63;;;2.10;;
49764;SDS011;35657;51.204;-4.130;2022-07-29T03:55:07;6.38;;;2.17;;
49764;SDS011;35657;51.204;-4.130;2022-07-29T03:57:34;3.25;;;1.50;;
49764;SDS011;35657;51.204;-4.130;2022-07-29T04:00:01;3.60;;;1.60;;
49764;SDS011;35657;51.204;-4.130;2022-07-29T04:02:30;6.82;;;1.73;;
49764;SDS011;35657;51.204;-4.130;2022-07-29T04:04:57;4.20;;;2.00;;
49764;SDS011;35657;51.204;-4.130;2022-07-29T04:07:23;2.03;;;1.58;;
49764;SDS011;35657;51.204;-4.130;2022-07-29T04:09:48;5.07;;;2.30;;
49764;SDS011;35657;51.204;-4.130;2022-07-29T04:12:14;3.72;;;1.70;;
49764;SDS011;35657;51.204;-4.130;2022-07-29T04:14:40;2.17;;;1.33;;
49764;SDS011;35657;51.204;-4.130;2022-07-29T04:17:06;2.42;;;1.50;;
49764;SDS011;35657;51.204;-4.130;2022-07-29T04:19:32;4.82;;;1.83;;
49764;SDS011;35657;51.204;-4.130;2022-07-29T04:21:58;1.75;;;1.35;;
49764;SDS011;35657;51.204;-4.130;2022-07-29T04:24:24;3.05;;;1.80;;
49764;SDS011;35657;51.204;-4.130;2022-07-29T04:26:51;2.90;;;1.35;;
49764;SDS011;35657;51.204;-4.130;2022-07-29T04:29:17;3.75;;;1.65;;
49764;SDS011;35657;51.204;-4.130;2022-07-29T04:31:43;2.28;;;1.63;;
49764;SDS011;35657;51.204;-4.130;2022-07-29T04:34:09;3.53;;;1.83;;
49764;SDS011;35657;51.204;-4.130;2022-07-29T04:36:35;2.53;;;1.75;;
49764;SDS011;35657;51.204;-4.130;2022-07-29T04:39:01;4.05;;;2.15;;
49764;SDS011;35657;51.204;-4.130;2022-07-29T04:41:27;2.50;;;1.85;;
49764;SDS011;35657;51.204;-4.130;2022-07-29T04:43:53;4.85;;;1.98;;
49764;SDS011;35657;51.204;-4.130;2022-07-29T04:46:19;3.58;;;2.90;;
49764;SDS011;35657;51.204;-4.130;2022-07-29T04:48:45;3.78;;;2.42;;
49764;SDS011;35657;51.204;-4.130;2022-07-29T04:51:12;5.80;;;2.72;;
49764;SDS011;35657;51.204;-4.130;2022-07-29T04:53:41;7.95;;;3.22;;
49764;SDS011;35657;51.204;-4.130;2022-07-29T04:56:08;7.30;;;2.92;;
49764;SDS011;35657;51.204;-4.130;2022-07-29T04:58:34;6.43;;;3.17;;
49764;SDS011;35657;51.204;-4.130;2022-07-29T05:01:00;4.28;;;3.20;;
49764;SDS011;35657;51.204;-4.130;2022-07-29T05:03:25;2.90;;;2.08;;
49764;SDS011;35657;51.204;-4.130;2022-07-29T05:05:51;4.47;;;2.28;;
49764;SDS011;35657;51.204;-4.130;2022-07-29T05:08:17;4.45;;;2.35;;
49764;SDS011;35657;51.204;-4.130;2022-07-29T05:10:43;2.50;;;2.20;;
49764;SDS011;35657;51.204;-4.130;2022-07-29T05:13:08;3.45;;;1.92;;
49764;SDS011;35657;51.204;-4.130;2022-07-29T05:15:34;3.30;;;2.22;;
49764;SDS011;35657;51.204;-4.130;2022-07-29T05:18:00;3.25;;;2.75;;
49764;SDS011;35657;51.204;-4.130;2022-07-29T05:20:26;3.60;;;2.20;;
49764;SDS011;35657;51.204;-4.130;2022-07-29T05:22:57;3.92;;;2.97;;
49764;SDS011;35657;51.204;-4.130;2022-07-29T05:25:24;5.50;;;3.17;;
49764;SDS011;35657;51.204;-4.130;2022-07-29T05:27:52;7.85;;;3.17;;
49764;SDS011;35657;51.204;-4.130;2022-07-29T05:30:18;3.75;;;2.55;;
49764;SDS011;35657;51.204;-4.130;2022-07-29T05:32:44;5.13;;;2.80;;
49764;SDS011;35657;51.204;-4.130;2022-07-29T05:35:11;3.22;;;2.85;;
49764;SDS011;35657;51.204;-4.130;2022-07-29T05:37:38;8.20;;;3.80;;
49764;SDS011;35657;51.204;-4.130;2022-07-29T05:40:04;7.03;;;3.40;;
49764;SDS011;35657;51.204;-4.130;2022-07-29T05:42:30;6.82;;;4.00;;
49764;SDS011;35657;51.204;-4.130;2022-07-29T05:44:56;4.50;;;2.60;;
49764;SDS011;35657;51.204;-4.130;2022-07-29T05:47:22;3.10;;;2.30;;
49764;SDS011;35657;51.204;-4.130;2022-07-29T05:49:48;5.40;;;2.83;;
49764;SDS011;35657;51.204;-4.130;2022-07-29T05:52:15;4.35;;;3.15;;
49764;SDS011;35657;51.204;-4.130;2022-07-29T05:54:41;6.03;;;3.22;;
49764;SDS011;35657;51.204;-4.130;2022-07-29T05:57:07;3.22;;;2.42;;
49764;SDS011;35657;51.204;-4.130;2022-07-29T05:59:36;6.45;;;3.25;;
49764;SDS011;35657;51.204;-4.130;2022-07-29T06:02:02;7.85;;;5.05;;
49764;SDS011;35657;51.204;-4.130;2022-07-29T06:04:30;11.15;;;4.65;;
49764;SDS011;35657;51.204;-4.130;2022-07-29T06:06:56;7.25;;;4.55;;
49764;SDS011;35657;51.204;-4.130;2022-07-29T06:09:22;7.75;;;5.43;;
49764;SDS011;35657;51.204;-4.130;2022-07-29T06:11:48;11.73;;;5.75;;
49764;SDS011;35657;51.204;-4.130;2022-07-29T06:14:14;9.02;;;5.10;;
49764;SDS011;35657;51.204;-4.130;2022-07-29T06:16:40;8.77;;;5.22;;
49764;SDS011;35657;51.204;-4.130;2022-07-29T06:19:06;8.15;;;5.03;;
49764;SDS011;35657;51.204;-4.130;2022-07-29T06:21:32;9.38;;;5.05;;
49764;SDS011;35657;51.204;-4.130;2022-07-29T06:23:58;7.18;;;4.85;;
49764;SDS011;35657;51.204;-4.130;2022-07-29T06:26:24;8.52;;;5.13;;
49764;SDS011;35657;51.204;-4.130;2022-07-29T06:28:50;11.90;;;6.28;;
49764;SDS011;35657;51.204;-4.130;2022-07-29T06:31:16;13.10;;;6.65;;
49764;SDS011;35657;51.204;-4.130;2022-07-29T06:33:41;10.20;;;5.47;;
49764;SDS011;35657;51.204;-4.130;2022-07-29T06:36:07;11.48;;;4.40;;
49764;SDS011;35657;51.204;-4.130;2022-07-29T06:38:33;6.57;;;4.05;;
49764;SDS011;35657;51.204;-4.130;2022-07-29T06:40:59;7.30;;;4.20;;
49764;SDS011;35657;51.204;-4.130;2022-07-29T06:43:35;8.70;;;5.32;;
49764;SDS011;35657;51.204;-4.130;2022-07-29T06:46:15;14.60;;;7.28;;
49764;SDS011;35657;51.204;-4.130;2022-07-29T06:48:44;18.15;;;7.50;;
49764;SDS011;35657;51.204;-4.130;2022-07-29T06:51:11;9.60;;;6.47;;
49764;SDS011;35657;51.204;-4.130;2022-07-29T06:53:37;11.23;;;6.85;;
49764;SDS011;35657;51.204;-4.130;2022-07-29T06:56:04;19.23;;;8.93;;
49764;SDS011;35657;51.204;-4.130;2022-07-29T06:58:31;17.50;;;9.90;;
49764;SDS011;35657;51.204;-4.130;2022-07-29T07:00:57;13.63;;;8.15;;
49764;SDS011;35657;51.204;-4.130;2022-07-29T07:03:25;15.95;;;8.32;;
49764;SDS011;35657;51.204;-4.130;2022-07-29T07:05:52;10.85;;;7.90;;
49764;SDS011;35657;51.204;-4.130;2022-07-29T07:08:18;15.68;;;8.63;;
49764;SDS011;35657;51.204;-4.130;2022-07-29T07:10:45;15.48;;;8.25;;
49764;SDS011;35657;51.204;-4.130;2022-07-29T07:13:11;16.42;;;7.65;;
49764;SDS011;35657;51.204;-4.130;2022-07-29T07:15:37;12.05;;;7.22;;
49764;SDS011;35657;51.204;-4.130;2022-07-29T07:18:03;25.02;;;8.23;;
49764;SDS011;35657;51.204;-4.130;2022-07-29T07:20:31;11.73;;;7.60;;
49764;SDS011;35657;51.204;-4.130;2022-07-29T07:22:58;13.93;;;7.57;;
49764;SDS011;35657;51.204;-4.130;2022-07-29T07:25:23;16.08;;;7.50;;
49764;SDS011;35657;51.204;-4.130;2022-07-29T07:27:49;17.13;;;6.72;;
49764;SDS011;35657;51.204;-4.130;2022-07-29T07:30:15;14.93;;;6.40;;
49764;SDS011;35657;51.204;-4.130;2022-07-29T07:32:41;10.38;;;5.80;;
49764;SDS011;35657;51.204;-4.130;2022-07-29T07:35:07;14.63;;;5.50;;
49764;SDS011;35657;51.204;-4.130;2022-07-29T07:37:34;11.68;;;6.13;;
49764;SDS011;35657;51.204;-4.130;2022-07-29T07:40:00;16.33;;;6.40;;
49764;SDS011;35657;51.204;-4.130;2022-07-29T07:42:26;11.35;;;5.07;;
49764;SDS011;35657;51.204;-4.130;2022-07-29T07:44:52;9.77;;;4.22;;
49764;SDS011;35657;51.204;-4.130;2022-07-29T07:47:18;13.10;;;4.60;;
49764;SDS011;35657;51.204;-4.130;2022-07-29T07:49:48;10.25;;;4.90;;
49764;SDS011;35657;51.204;-4.130;2022-07-29T07:52:16;7.90;;;4.32;;
49764;SDS011;35657;51.204;-4.130;2022-07-29T07:54:43;8.05;;;4.70;;
49764;SDS011;35657;51.204;-4.130;2022-07-29T07:57:09;13.10;;;5.75;;
49764;SDS011;35657;51.204;-4.130;2022-07-29T07:59:36;8.55;;;4.15;;
49764;SDS011;35657;51.204;-4.130;2022-07-29T08:02:02;12.98;;;5.13;;
49764;SDS011;35657;51.204;-4.130;2022-07-29T08:04:28;9.50;;;4.75;;
49764;SDS011;35657;51.204;-4.130;2022-07-29T08:06:54;10.27;;;4.68;;
49764;SDS011;35657;51.204;-4.130;2022-07-29T08:09:21;8.82;;;5.00;;
49764;SDS011;35657;51.204;-4.130;2022-07-29T08:11:47;13.30;;;4.05;;
49764;SDS011;35657;51.204;-4.130;2022-07-29T08:14:13;10.15;;;4.82;;
49764;SDS011;35657;51.204;-4.130;2022-07-29T08:16:39;11.75;;;4.57;;
49764;SDS011;35657;51.204;-4.130;2022-07-29T08:19:06;13.13;;;4.50;;
49764;SDS011;35657;51.204;-4.130;2022-07-29T08:21:32;12.32;;;6.13;;
49764;SDS011;35657;51.204;-4.130;2022-07-29T08:23:58;6.70;;;4.65;;
49764;SDS011;35657;51.204;-4.130;2022-07-29T08:26:42;8.05;;;4.18;;
49764;SDS011;35657;51.204;-4.130;2022-07-29T08:29:10;12.30;;;4.60;;
49764;SDS011;35657;51.204;-4.130;2022-07-29T08:31:36;11.38;;;5.28;;
49764;SDS011;35657;51.204;-4.130;2022-07-29T08:34:02;9.57;;;4.78;;
49764;SDS011;35657;51.204;-4.130;2022-07-29T08:36:29;10.60;;;5.55;;
49764;SDS011;35657;51.204;-4.130;2022-07-29T08:38:55;16.38;;;5.55;;
49764;SDS011;35657;51.204;-4.130;2022-07-29T08:41:21;11.52;;;5.93;;
49764;SDS011;35657;51.204;-4.130;2022-07-29T08:43:47;9.43;;;5.30;;
49764;SDS011;35657;51.204;-4.130;2022-07-29T08:46:13;15.23;;;5.80;;
49764;SDS011;35657;51.204;-4.130;2022-07-29T08:48:40;9.80;;;6.57;;
49764;SDS011;35657;51.204;-4.130;2022-07-29T08:51:07;10.73;;;5.45;;
49764;SDS011;35657;51.204;-4.130;2022-07-29T08:53:33;9.32;;;4.93;;
49764;SDS011;35657;51.204;-4.130;2022-07-29T08:55:59;9.32;;;4.93;;
49764;SDS011;35657;51.204;-4.130;2022-07-29T08:58:27;10.30;;;5.07;;
49764;SDS011;35657;51.204;-4.130;2022-07-29T09:00:57;11.38;;;5.28;;
49764;SDS011;35657;51.204;-4.130;2022-07-29T09:03:31;9.20;;;4.40;;
49764;SDS011;35657;51.204;-4.130;2022-07-29T09:05:59;10.68;;;5.03;;
49764;SDS011;35657;51.204;-4.130;2022-07-29T09:08:26;8.32;;;4.40;;
49764;SDS011;35657;51.204;-4.130;2022-07-29T09:10:53;9.15;;;5.00;;
49764;SDS011;35657;51.204;-4.130;2022-07-29T09:13:21;14.85;;;5.30;;
49764;SDS011;35657;51.204;-4.130;2022-07-29T09:15:47;8.55;;;4.30;;
49764;SDS011;35657;51.204;-4.130;2022-07-29T09:20:57;11.05;;;4.32;;
49764;SDS011;35657;51.204;-4.130;2022-07-29T09:23:58;9.45;;;3.70;;
49764;SDS011;35657;51.204;-4.130;2022-07-29T09:26:30;9.90;;;3.90;;
49764;SDS011;35657;51.204;-4.130;2022-07-29T09:28:57;7.00;;;3.55;;
49764;SDS011;35657;51.204;-4.130;2022-07-29T09:31:34;5.18;;;3.22;;
49764;SDS011;35657;51.204;-4.130;2022-07-29T09:34:01;6.82;;;3.75;;
49764;SDS011;35657;51.204;-4.130;2022-07-29T09:36:28;8.48;;;3.78;;
49764;SDS011;35657;51.204;-4.130;2022-07-29T09:38:57;8.30;;;4.00;;
49764;SDS011;35657;51.204;-4.130;2022-07-29T09:41:25;7.63;;;3.97;;
49764;SDS011;35657;51.204;-4.130;2022-07-29T09:43:55;11.68;;;4.60;;
49764;SDS011;35657;51.204;-4.130;2022-07-29T09:46:21;10.20;;;4.78;;
49764;SDS011;35657;51.204;-4.130;2022-07-29T09:51:34;8.20;;;4.28;;
49764;SDS011;35657;51.204;-4.130;2022-07-29T09:54:00;8.35;;;4.47;;
49764;SDS011;35657;51.204;-4.130;2022-07-29T09:56:38;12.68;;;5.13;;
49764;SDS011;35657;51.204;-4.130;2022-07-29T09:59:06;10.95;;;5.47;;
49764;SDS011;35657;51.204;-4.130;2022-07-29T10:01:33;10.80;;;4.13;;
49764;SDS011;35657;51.204;-4.130;2022-07-29T10:03:59;7.35;;;4.53;;
49764;SDS011;35657;51.204;-4.130;2022-07-29T10:06:25;5.20;;;3.88;;
49764;SDS011;35657;51.204;-4.130;2022-07-29T10:08:51;14.13;;;4.55;;
49764;SDS011;35657;51.204;-4.130;2022-07-29T10:11:17;9.52;;;4.28;;
49764;SDS011;35657;51.204;-4.130;2022-07-29T10:13:44;7.25;;;3.92;;
49764;SDS011;35657;51.204;-4.130;2022-07-29T10:16:12;11.27;;;4.82;;
49764;SDS011;35657;51.204;-4.130;2022-07-29T10:18:43;8.98;;;4.35;;
49764;SDS011;35657;51.204;-4.130;2022-07-29T10:21:09;12.38;;;4.70;;
49764;SDS011;35657;51.204;-4.130;2022-07-29T10:23:35;9.27;;;4.07;;
49764;SDS011;35657;51.204;-4.130;2022-07-29T10:26:03;6.88;;;4.03;;
49764;SDS011;35657;51.204;-4.130;2022-07-29T10:28:32;10.63;;;4.47;;
49764;SDS011;35657;51.204;-4.130;2022-07-29T10:31:02;8.32;;;3.97;;
49764;SDS011;35657;51.204;-4.130;2022-07-29T10:33:48;5.85;;;4.20;;
49764;SDS011;35657;51.204;-4.130;2022-07-29T10:44:20;12.88;;;4.20;;
49764;SDS011;35657;51.204;-4.130;2022-07-29T10:46:48;10.05;;;4.15;;
49764;SDS011;35657;51.204;-4.130;2022-07-29T10:49:19;10.23;;;4.53;;
49764;SDS011;35657;51.204;-4.130;2022-07-29T10:54:17;8.73;;;3.40;;
49764;SDS011;35657;51.204;-4.130;2022-07-29T10:56:44;11.73;;;4.68;;
49764;SDS011;35657;51.204;-4.130;2022-07-29T11:01:45;10.43;;;4.03;;
49764;SDS011;35657;51.204;-4.130;2022-07-29T11:04:12;10.77;;;4.38;;
49764;SDS011;35657;51.204;-4.130;2022-07-29T11:07:23;7.72;;;4.05;;
49764;SDS011;35657;51.204;-4.130;2022-07-29T11:09:23;7.30;;;4.03;;
49764;SDS011;35657;51.204;-4.130;2022-07-29T11:11:50;6.47;;;4.20;;
49764;SDS011;35657;51.204;-4.130;2022-07-29T11:14:16;7.10;;;4.57;;
49764;SDS011;35657;51.204;-4.130;2022-07-29T11:16:58;12.35;;;4.32;;
49764;SDS011;35657;51.204;-4.130;2022-07-29T11:19:29;7.85;;;4.75;;
49764;SDS011;35657;51.204;-4.130;2022-07-29T11:21:55;10.25;;;3.90;;
49764;SDS011;35657;51.204;-4.130;2022-07-29T11:24:25;6.90;;;4.07;;
49764;SDS011;35657;51.204;-4.130;2022-07-29T11:32:17;9.20;;;5.22;;
49764;SDS011;35657;51.204;-4.130;2022-07-29T11:34:46;11.00;;;4.38;;
49764;SDS011;35657;51.204;-4.130;2022-07-29T11:39:44;4.57;;;3.63;;
49764;SDS011;35657;51.204;-4.130;2022-07-29T11:50:15;12.00;;;4.38;;
49764;SDS011;35657;51.204;-4.130;2022-07-29T11:53:11;7.32;;;3.78;;
49764;SDS011;35657;51.204;-4.130;2022-07-29T11:55:41;5.07;;;3.30;;
49764;SDS011;35657;51.204;-4.130;2022-07-29T11:58:07;7.68;;;3.33;;
49764;SDS011;35657;51.204;-4.130;2022-07-29T12:03:02;6.40;;;4.13;;
49764;SDS011;35657;51.204;-4.130;2022-07-29T12:05:30;7.30;;;3.72;;
49764;SDS011;35657;51.204;-4.130;2022-07-29T12:10:44;8.80;;;3.78;;
49764;SDS011;35657;51.204;-4.130;2022-07-29T12:13:11;6.63;;;4.10;;
49764;SDS011;35657;51.204;-4.130;2022-07-29T12:15:38;7.15;;;3.40;;
49764;SDS011;35657;51.204;-4.130;2022-07-29T12:18:15;7.82;;;4.68;;
49764;SDS011;35657;51.204;-4.130;2022-07-29T12:20:43;9.70;;;3.83;;
49764;SDS011;35657;51.204;-4.130;2022-07-29T12:23:09;8.88;;;4.20;;
49764;SDS011;35657;51.204;-4.130;2022-07-29T12:25:37;9.13;;;3.80;;
49764;SDS011;35657;51.204;-4.130;2022-07-29T12:28:05;9.07;;;3.72;;
49764;SDS011;35657;51.204;-4.130;2022-07-29T12:35:47;8.77;;;4.32;;
49764;SDS011;35657;51.204;-4.130;2022-07-29T12:38:15;7.72;;;3.90;;
49764;SDS011;35657;51.204;-4.130;2022-07-29T12:40:41;6.15;;;3.80;;
49764;SDS011;35657;51.204;-4.130;2022-07-29T12:43:12;9.55;;;3.28;;
49764;SDS011;35657;51.204;-4.130;2022-07-29T12:45:44;7.40;;;3.55;;
49764;SDS011;35657;51.204;-4.130;2022-07-29T12:48:15;5.22;;;3.45;;
49764;SDS011;35657;51.204;-4.130;2022-07-29T12:50:58;7.65;;;3.42;;
49764;SDS011;35657;51.204;-4.130;2022-07-29T12:53:25;5.38;;;3.20;;
49764;SDS011;35657;51.204;-4.130;2022-07-29T12:55:52;4.13;;;3.65;;
49764;SDS011;35657;51.204;-4.130;2022-07-29T13:03:46;7.93;;;3.85;;
49764;SDS011;35657;51.204;-4.130;2022-07-29T13:11:28;7.40;;;3.38;;
49764;SDS011;35657;51.204;-4.130;2022-07-29T13:13:55;8.30;;;3.50;;
49764;SDS011;35657;51.204;-4.130;2022-07-29T13:16:20;10.75;;;3.88;;
49764;SDS011;35657;51.204;-4.130;2022-07-29T13:18:46;11.05;;;3.25;;
49764;SDS011;35657;51.204;-4.130;2022-07-29T13:21:13;4.78;;;3.15;;
49764;SDS011;35657;51.204;-4.130;2022-07-29T13:23:40;5.80;;;3.20;;
49764;SDS011;35657;51.204;-4.130;2022-07-29T13:26:10;9.82;;;3.50;;
49764;SDS011;35657;51.204;-4.130;2022-07-29T13:28:36;10.65;;;3.38;;
49764;SDS011;35657;51.204;-4.130;2022-07-29T13:31:02;7.35;;;3.55;;
49764;SDS011;35657;51.204;-4.130;2022-07-29T13:33:29;7.70;;;3.28;;
49764;SDS011;35657;51.204;-4.130;2022-07-29T13:35:55;7.97;;;2.55;;
49764;SDS011;35657;51.204;-4.130;2022-07-29T13:38:21;9.38;;;3.00;;
49764;SDS011;35657;51.204;-4.130;2022-07-29T13:40:47;8.70;;;3.65;;
49764;SDS011;35657;51.204;-4.130;2022-07-29T13:43:13;5.55;;;3.17;;
49764;SDS011;35657;51.204;-4.130;2022-07-29T13:45:39;6.80;;;3.03;;
49764;SDS011;35657;51.204;-4.130;2022-07-29T13:48:05;8.75;;;3.28;;
49764;SDS011;35657;51.204;-4.130;2022-07-29T13:50:31;7.18;;;3.25;;
49764;SDS011;35657;51.204;-4.130;2022-07-29T13:52:57;6.10;;;3.30;;
49764;SDS011;35657;51.204;-4.130;2022-07-29T13:55:23;6.57;;;2.78;;
49764;SDS011;35657;51.204;-4.130;2022-07-29T13:57:49;7.07;;;3.95;;
49764;SDS011;35657;51.204;-4.130;2022-07-29T14:00:15;9.02;;;3.58;;
49764;SDS011;35657;51.204;-4.130;2022-07-29T14:02:41;8.10;;;3.25;;
49764;SDS011;35657;51.204;-4.130;2022-07-29T14:05:07;8.55;;;3.50;;
49764;SDS011;35657;51.204;-4.130;2022-07-29T14:07:35;9.40;;;3.90;;
49764;SDS011;35657;51.204;-4.130;2022-07-29T14:10:04;5.82;;;3.53;;
49764;SDS011;35657;51.204;-4.130;2022-07-29T14:12:30;11.32;;;3.85;;
49764;SDS011;35657;51.204;-4.130;2022-07-29T14:14:56;5.22;;;2.85;;
49764;SDS011;35657;51.204;-4.130;2022-07-29T14:17:22;9.00;;;2.80;;
49764;SDS011;35657;51.204;-4.130;2022-07-29T14:19:48;10.48;;;3.30;;
49764;SDS011;35657;51.204;-4.130;2022-07-29T14:22:14;7.68;;;3.28;;
49764;SDS011;35657;51.204;-4.130;2022-07-29T14:24:40;4.45;;;2.90;;
49764;SDS011;35657;51.204;-4.130;2022-07-29T14:27:06;4.03;;;3.10;;
49764;SDS011;35657;51.204;-4.130;2022-07-29T14:29:32;7.43;;;2.67;;
49764;SDS011;35657;51.204;-4.130;2022-07-29T14:31:59;10.13;;;4.55;;
49764;SDS011;35657;51.204;-4.130;2022-07-29T14:34:25;10.00;;;2.88;;
49764;SDS011;35657;51.204;-4.130;2022-07-29T14:36:51;8.23;;;3.50;;
49764;SDS011;35657;51.204;-4.130;2022-07-29T14:39:18;9.23;;;3.05;;
49764;SDS011;35657;51.204;-4.130;2022-07-29T14:41:44;10.57;;;3.05;;
49764;SDS011;35657;51.204;-4.130;2022-07-29T14:44:10;6.78;;;2.78;;
49764;SDS011;35657;51.204;-4.130;2022-07-29T14:46:35;5.70;;;3.17;;
49764;SDS011;35657;51.204;-4.130;2022-07-29T14:49:01;4.15;;;2.63;;
49764;SDS011;35657;51.204;-4.130;2022-07-29T14:51:27;5.78;;;3.05;;
49764;SDS011;35657;51.204;-4.130;2022-07-29T14:53:53;7.78;;;3.28;;
49764;SDS011;35657;51.204;-4.130;2022-07-29T15:03:00;5.40;;;2.30;;
49764;SDS011;35657;51.204;-4.130;2022-07-29T15:05:26;5.80;;;3.03;;
49764;SDS011;35657;51.204;-4.130;2022-07-29T15:07:52;8.52;;;2.45;;
49764;SDS011;35657;51.204;-4.130;2022-07-29T15:10:18;4.82;;;2.17;;
49764;SDS011;35657;51.204;-4.130;2022-07-29T15:25:44;5.22;;;2.70;;
49764;SDS011;35657;51.204;-4.130;2022-07-29T15:28:09;9.15;;;3.60;;
49764;SDS011;35657;51.204;-4.130;2022-07-29T15:30:35;5.35;;;3.10;;
49764;SDS011;35657;51.204;-4.130;2022-07-29T15:33:05;6.45;;;3.40;;
49764;SDS011;35657;51.204;-4.130;2022-07-29T15:35:33;3.67;;;3.15;;
49764;SDS011;35657;51.204;-4.130;2022-07-29T15:37:59;7.80;;;2.97;;
49764;SDS011;35657;51.204;-4.130;2022-07-29T15:40:24;6.53;;;3.10;;
49764;SDS011;35657;51.204;-4.130;2022-07-29T15:42:50;8.93;;;3.42;;
49764;SDS011;35657;51.204;-4.130;2022-07-29T15:45:16;8.07;;;3.35;;
49764;SDS011;35657;51.204;-4.130;2022-07-29T15:47:42;12.82;;;3.03;;
49764;SDS011;35657;51.204;-4.130;2022-07-29T15:50:07;4.50;;;2.53;;
49764;SDS011;35657;51.204;-4.130;2022-07-29T15:52:38;4.20;;;2.30;;
49764;SDS011;35657;51.204;-4.130;2022-07-29T15:55:04;4.68;;;2.10;;
49764;SDS011;35657;51.204;-4.130;2022-07-29T15:57:30;7.35;;;2.30;;
49764;SDS011;35657;51.204;-4.130;2022-07-29T15:59:56;3.50;;;2.08;;